Time;durP1;ratioP1;P1;durP2;ratioP2;P2;SDS_P1;SDS_P2;PMS_P1;PMS_P2;Temp;Humidity;BMP_temperature;BMP_pressure;BME280_temperature;BME280_humidity;BME280_pressure;Samples;Min_cycle;Max_cycle;Signal;HPM_P1;HPM_P2
2023/07/06 00:14:24;;;;;;;14.98;8.80;;;;;;;31.27;98.50;99974.97;31320805;28;20078;-83
2023/07/06 00:29:29;;;;;;;14.75;7.65;;;;;;;31.21;100.00;99960.38;31437081;28;20382;-82
2023/07/06 00:44:57;;;;;;;12.35;7.63;;;;;;;31.03;100.00;99951.06;31439705;28;20079;-83
2023/07/06 01:00:02;;;;;;;18.77;8.07;;;;;;;30.82;100.00;99951.31;31443036;28;20055;-84
2023/07/06 01:15:06;;;;;;;24.08;8.82;;;;;;;30.90;100.00;99964.56;31427527;28;20134;-84
2023/07/06 01:30:17;;;;;;;17.15;8.45;;;;;;;30.51;100.00;99944.22;31396287;28;20465;-84
2023/07/06 01:45:23;;;;;;;15.43;8.13;;;;;;;30.29;100.00;99947.78;31423140;28;20053;-81
2023/07/06 02:00:27;;;;;;;14.20;7.90;;;;;;;30.36;100.00;99949.84;31390702;28;20056;-85
2023/07/06 02:15:30;;;;;;;12.95;7.55;;;;;;;30.12;100.00;99940.69;31359491;28;20071;-81
2023/07/06 02:30:33;;;;;;;16.10;7.53;;;;;;;30.51;100.00;99958.22;31363615;28;20049;-82
2023/07/06 02:45:36;;;;;;;22.25;11.63;;;;;;;30.50;100.00;99967.94;31387723;28;20059;-82
2023/07/06 03:00:38;;;;;;;18.17;8.35;;;;;;;30.69;100.00;99968.34;31405688;28;20091;-82
2023/07/06 03:15:41;;;;;;;34.95;16.65;;;;;;;31.13;100.00;99996.13;31404255;28;20147;-83
2023/07/06 03:30:43;;;;;;;14.20;8.52;;;;;;;31.47;100.00;99987.97;31382611;28;20123;-83
2023/07/06 03:45:48;;;;;;;14.07;7.22;;;;;;;31.97;95.28;99999.34;31385294;28;20086;-81
2023/07/06 04:00:50;;;;;;;17.27;7.75;;;;;;;32.72;85.79;100008.56;31407878;28;20098;-79
2023/07/06 04:15:55;;;;;;;10.82;6.65;;;;;;;32.98;81.37;100006.47;31394834;28;20464;-82
2023/07/06 04:30:59;;;;;;;14.13;7.03;;;;;;;33.36;79.07;100017.31;31382564;28;20056;-81
2023/07/06 04:46:04;;;;;;;15.98;7.40;;;;;;;33.80;74.48;100020.91;31395783;28;20049;-82
2023/07/06 05:01:19;;;;;;;13.45;6.78;;;;;;;34.47;70.41;100022.63;31397738;28;20079;-83
2023/07/06 05:16:28;;;;;;;17.05;7.50;;;;;;;34.97;65.23;100030.59;31386671;28;20048;-84
2023/07/06 05:31:38;;;;;;;12.07;6.23;;;;;;;35.53;63.54;100015.06;31403562;28;20040;-81
2023/07/06 05:46:45;;;;;;;14.40;6.68;;;;;;;36.09;60.64;100023.28;31374755;28;20305;-83
2023/07/06 06:01:55;;;;;;;12.07;5.60;;;;;;;36.64;58.41;100024.22;31409057;28;20088;-84
2023/07/06 06:16:57;;;;;;;12.20;5.75;;;;;;;36.33;55.46;100017.88;31350962;28;20049;-80
2023/07/06 06:32:01;;;;;;;9.52;5.80;;;;;;;37.15;54.83;100021.97;31344239;28;20048;-82
2023/07/06 06:47:04;;;;;;;10.30;4.95;;;;;;;38.10;49.23;100016.03;31385910;28;20052;-83
2023/07/06 07:02:07;;;;;;;8.10;4.90;;;;;;;38.73;46.99;100009.28;31393634;28;20068;-82
2023/07/06 07:17:10;;;;;;;14.27;6.18;;;;;;;39.54;46.15;100011.13;31368429;28;20052;-83
2023/07/06 07:32:12;;;;;;;5.53;4.03;;;;;;;40.04;42.67;100003.91;31388417;28;20050;-83
2023/07/06 07:47:18;;;;;;;16.55;4.15;;;;;;;39.90;40.65;100006.00;31408363;28;20068;-85
2023/07/06 08:02:23;;;;;;;10.23;3.22;;;;;;;40.59;37.17;100001.13;31386501;28;20041;-88
2023/07/06 08:17:26;;;;;;;10.25;2.78;;;;;;;40.76;35.73;99994.88;31374247;28;20056;-82
2023/07/06 08:32:28;;;;;;;3.05;2.33;;;;;;;40.99;34.98;99996.72;31388964;28;20052;-82
2023/07/06 08:47:30;;;;;;;6.03;2.95;;;;;;;40.91;33.94;99992.75;31388714;28;20122;-81
2023/07/06 09:02:34;;;;;;;5.55;2.50;;;;;;;41.57;33.22;100006.69;31366482;28;20041;-82
2023/07/06 09:17:49;;;;;;;6.65;2.63;;;;;;;41.41;32.90;99986.69;31343648;28;20120;-80
2023/07/06 09:32:59;;;;;;;5.70;2.60;;;;;;;41.81;33.45;99975.75;31360435;28;20071;-78
2023/07/06 09:48:18;;;;;;;8.40;3.20;;;;;;;42.32;32.82;99963.75;31360656;28;20062;-78
2023/07/06 10:03:37;;;;;;;7.10;2.83;;;;;;;43.04;33.05;99976.81;31344947;28;20052;-80
2023/07/06 10:18:54;;;;;;;3.83;2.80;;;;;;;43.41;32.13;99956.91;31336635;28;20106;-79
2023/07/06 10:34:19;;;;;;;4.00;2.47;;;;;;;44.27;29.91;99968.66;31331551;28;20072;-79
2023/07/06 10:49:22;;;;;;;4.27;2.37;;;;;;;43.53;30.74;99950.91;31329935;28;20047;-78
2023/07/06 11:04:55;;;;;;;4.40;2.78;;;;;;;43.99;29.46;99960.50;31351072;28;20461;-79
2023/07/06 11:20:04;;;;;;;3.53;2.40;;;;;;;43.13;30.78;99947.19;31355385;28;20055;-84
2023/07/06 11:35:30;;;;;;;5.22;2.72;;;;;;;41.71;31.42;99933.28;31368905;28;20075;-79
2023/07/06 11:50:38;;;;;;;5.23;2.50;;;;;;;41.44;31.79;99928.44;31373087;28;20449;-80
2023/07/06 12:05:44;;;;;;;4.80;2.75;;;;;;;41.17;32.32;99905.81;31357035;28;20087;-81
2023/07/06 12:20:54;;;;;;;5.23;2.60;;;;;;;41.03;31.99;99882.34;31349194;28;20099;-81
2023/07/06 12:36:00;;;;;;;3.70;2.60;;;;;;;41.07;32.18;99874.00;31368457;28;20118;-83
2023/07/06 12:51:09;;;;;;;5.00;3.03;;;;;;;41.16;32.66;99858.78;31354471;28;20075;-83
2023/07/06 13:06:12;;;;;;;7.28;2.78;;;;;;;40.60;34.27;99863.19;31361400;28;20057;-79
2023/07/06 14:30:33;;;;;;;10.45;4.22;;;;;;;38.01;43.02;99844.06;31100924;28;20888;-86
2023/07/06 14:45:36;;;;;;;5.80;3.75;;;;;;;37.93;42.16;99835.06;30989501;28;20138;-84
2023/07/06 15:00:38;;;;;;;7.38;4.50;;;;;;;38.01;41.11;99821.41;30994337;28;20436;-83
2023/07/06 15:15:43;;;;;;;7.03;4.05;;;;;;;38.39;40.96;99818.00;30994720;28;20050;-86
2023/07/06 15:30:58;;;;;;;;;;;;;;;;;;;;;
2023/07/06 15:47:02;;;;;;;;;;;;;;;;;;;;;
2023/07/06 16:02:14;;;;;;;5.95;3.50;;;;;;;37.93;40.90;99795.41;30899459;28;20447;-83
2023/07/06 16:17:16;;;;;;;5.18;3.55;;;;;;;38.02;40.77;99795.28;30892257;28;20061;-88
2023/07/06 16:32:18;;;;;;;6.28;3.78;;;;;;;37.69;40.87;99803.22;30865785;28;20489;-84
2023/07/06 16:47:33;;;;;;;;;;;;;;;;;;;;;
2023/07/06 17:02:36;;;;;;;12.00;5.18;;;;;;;36.85;42.14;99817.81;30844115;28;20053;-79
2023/07/06 17:17:38;;;;;;;8.48;4.97;;;;;;;36.86;42.10;99819.28;30861041;28;20054;-80
2023/07/06 17:32:40;;;;;;;9.50;4.97;;;;;;;36.58;42.44;99805.41;30872412;28;20066;-84
2023/07/06 17:47:42;;;;;;;9.30;4.63;;;;;;;36.27;42.96;99811.91;30865432;28;20054;-79
2023/07/06 18:02:44;;;;;;;10.70;5.47;;;;;;;35.99;44.05;99822.03;30858353;28;20043;-80
2023/07/06 18:17:46;;;;;;;12.80;5.60;;;;;;;35.55;46.53;99842.28;30857421;28;20145;-81
2023/07/06 18:32:48;;;;;;;15.20;7.97;;;;;;;35.16;47.82;99862.13;30865425;28;20057;-85
2023/07/06 18:47:50;;;;;;;13.98;5.70;;;;;;;35.02;48.68;99854.72;30865433;28;20054;-82
2023/07/06 19:02:52;;;;;;;9.82;5.00;;;;;;;35.01;47.70;99856.78;30881289;28;20141;-80
2023/07/06 19:17:55;;;;;;;14.77;5.00;;;;;;;34.85;48.38;99870.47;30894782;28;20055;-80
2023/07/06 19:32:59;;;;;;;14.18;7.28;;;;;;;34.57;49.27;99868.38;30894109;28;20174;-81
2023/07/06 19:48:02;;;;;;;8.55;5.00;;;;;;;34.50;49.26;99869.97;30893527;28;20050;-80
2023/07/06 20:03:04;;;;;;;14.93;10.48;;;;;;;34.18;49.58;99868.28;30887594;28;20097;-80
2023/07/06 20:18:06;;;;;;;8.73;4.30;;;;;;;34.10;49.95;99867.66;30867232;28;20074;-81
2023/07/06 20:33:09;;;;;;;5.07;3.85;;;;;;;33.82;50.37;99859.88;30872135;28;20507;-77
2023/07/06 20:48:11;;;;;;;8.40;4.47;;;;;;;33.78;50.32;99865.94;30862515;28;20050;-80
2023/07/06 21:03:13;;;;;;;11.73;5.30;;;;;;;33.85;50.26;99869.97;30855717;28;20093;-80
2023/07/06 21:18:15;;;;;;;9.40;4.60;;;;;;;33.80;50.53;99856.91;30858760;28;20091;-82
2023/07/06 21:33:18;;;;;;;4.95;3.97;;;;;;;33.65;51.02;99851.50;30861499;28;20077;-79
2023/07/06 21:48:20;;;;;;;10.20;4.18;;;;;;;33.49;51.21;99857.34;30858037;28;20070;-80
2023/07/06 22:03:23;;;;;;;8.77;5.05;;;;;;;33.35;52.19;99830.91;30859553;28;20053;-84
2023/07/06 22:18:27;;;;;;;9.32;4.53;;;;;;;33.18;52.79;99822.50;30875169;28;20512;-82
2023/07/06 22:33:32;;;;;;;10.43;5.22;;;;;;;32.97;52.84;99814.53;30891896;28;20047;-81
2023/07/06 22:48:34;;;;;;;13.38;6.90;;;;;;;32.73;52.90;99812.56;30888253;28;20051;-81
2023/07/06 23:03:36;;;;;;;11.43;5.20;;;;;;;32.79;52.85;99807.47;30883072;28;20105;-81
2023/07/06 23:18:38;;;;;;;11.38;6.13;;;;;;;32.40;54.06;99809.19;30881205;28;20059;-81
2023/07/06 23:33:40;;;;;;;16.77;5.95;;;;;;;32.56;53.42;99804.16;30889464;28;20050;-82
2023/07/06 23:48:42;;;;;;;13.32;5.63;;;;;;;32.30;54.07;99797.88;30881295;28;20057;-83
